Time;durP1;ratioP1;P1;durP2;ratioP2;P2;SDS_P1;SDS_P2;PMS_P1;PMS_P2;Temp;Humidity;BMP_temperature;BMP_pressure;BME280_temperature;BME280_humidity;BME280_pressure;Samples;Min_cycle;Max_cycle;Signal;HPM_P1;HPM_P2
2023/09/21 00:01:25;;;;;;;1.93;1.43;;;;;;;21.62;81.67;99555.63;5111595;28;20199;-67
2023/09/21 00:03:55;;;;;;;1.60;1.60;;;;;;;21.59;81.80;99562.84;5111723;28;20214;-67
2023/09/21 00:06:21;;;;;;;1.37;1.27;;;;;;;21.57;81.82;99556.91;5111876;28;20195;-67
2023/09/21 00:08:49;;;;;;;3.77;1.90;;;;;;;21.54;81.70;99563.19;5111446;28;20233;-67
2023/09/21 00:11:16;;;;;;;4.73;1.60;;;;;;;21.52;81.74;99565.06;5112089;28;20256;-68
2023/09/21 00:13:43;;;;;;;2.47;2.03;;;;;;;21.50;81.81;99560.91;5111616;28;20193;-68
2023/09/21 00:16:12;;;;;;;2.07;1.93;;;;;;;21.48;82.06;99558.41;5110696;28;20643;-67
2023/09/21 00:18:41;;;;;;;2.37;2.27;;;;;;;21.46;82.36;99562.88;5111607;28;20242;-67
2023/09/21 00:21:12;;;;;;;1.90;1.80;;;;;;;21.43;82.56;99557.91;5111782;28;20674;-67
2023/09/21 00:23:39;;;;;;;2.37;2.17;;;;;;;21.34;83.21;99558.56;5111067;28;20214;-67
2023/09/21 00:26:07;;;;;;;3.10;1.73;;;;;;;21.27;83.12;99554.72;5111752;28;20673;-67
2023/09/21 00:28:34;;;;;;;1.70;1.60;;;;;;;21.29;82.98;99558.06;5111419;28;20201;-67
2023/09/21 00:31:02;;;;;;;2.60;1.47;;;;;;;21.24;83.15;99554.94;5111446;28;20205;-67
2023/09/21 00:33:31;;;;;;;1.63;1.63;;;;;;;21.11;83.24;99555.00;5108991;28;20282;-67
2023/09/21 00:35:59;;;;;;;1.97;1.90;;;;;;;21.05;83.30;99551.94;5111050;28;20206;-67
2023/09/21 00:38:30;;;;;;;1.80;1.47;;;;;;;21.02;83.35;99554.78;5110831;28;20247;-67
2023/09/21 00:40:57;;;;;;;2.10;2.00;;;;;;;20.99;83.35;99560.22;5110966;28;20201;-67
2023/09/21 00:43:25;;;;;;;1.83;1.73;;;;;;;20.84;83.99;99539.47;5111317;28;20217;-68
2023/09/21 00:45:53;;;;;;;1.90;1.87;;;;;;;20.96;83.66;99550.84;5111145;28;20233;-67
2023/09/21 00:48:25;;;;;;;2.30;2.17;;;;;;;20.95;83.91;99555.22;5111353;28;20213;-68
2023/09/21 00:50:53;;;;;;;3.07;2.87;;;;;;;20.92;83.91;99554.59;5111107;28;20193;-67
2023/09/21 00:53:21;;;;;;;3.40;2.47;;;;;;;20.85;84.00;99548.97;5111144;28;20281;-67
2023/09/21 00:55:53;;;;;;;2.27;2.13;;;;;;;20.65;84.09;99525.22;5111153;28;20624;-67
2023/09/21 00:58:21;;;;;;;2.83;2.63;;;;;;;20.73;84.38;99544.63;5111165;28;20697;-67
2023/09/21 01:00:49;;;;;;;2.77;2.07;;;;;;;20.63;85.03;99543.59;5110615;28;20217;-67
2023/09/21 01:03:17;;;;;;;4.77;2.40;;;;;;;20.49;85.10;99543.69;5108567;28;20278;-67
2023/09/21 01:05:48;;;;;;;2.77;2.67;;;;;;;20.46;85.51;99551.72;5111102;28;20205;-67
2023/09/21 01:08:20;;;;;;;2.57;1.87;;;;;;;20.46;85.92;99551.72;5110668;28;20247;-67
2023/09/21 01:10:49;;;;;;;2.40;2.30;;;;;;;20.46;86.05;99556.94;5110728;28;20203;-67
2023/09/21 01:13:17;;;;;;;3.10;2.40;;;;;;;20.44;85.67;99556.22;5111110;28;20212;-67
2023/09/21 01:15:46;;;;;;;3.00;1.80;;;;;;;20.43;85.46;99557.13;5110754;28;20696;-67
2023/09/21 01:18:13;;;;;;;1.83;1.73;;;;;;;20.39;85.49;99561.72;5111069;28;20212;-68
2023/09/21 01:20:42;;;;;;;1.57;1.57;;;;;;;20.38;85.73;99559.22;5109747;28;20258;-67
2023/09/21 01:23:18;;;;;;;3.07;2.60;;;;;;;20.38;86.08;99551.41;5110424;28;20218;-67
2023/09/21 01:25:50;;;;;;;1.60;1.40;;;;;;;20.41;86.33;99554.66;5110750;28;20574;-68
2023/09/21 01:28:19;;;;;;;6.57;2.53;;;;;;;20.43;86.13;99559.75;5110918;28;20235;-67
2023/09/21 01:30:47;;;;;;;3.40;1.70;;;;;;;20.36;86.15;99545.47;5110816;28;20194;-67
2023/09/21 01:33:15;;;;;;;2.33;2.23;;;;;;;20.39;86.45;99551.28;5110626;28;20205;-67
2023/09/21 01:35:43;;;;;;;1.90;1.70;;;;;;;20.41;86.68;99549.44;5110572;28;20674;-67
2023/09/21 01:38:11;;;;;;;8.50;1.90;;;;;;;20.41;86.49;99553.81;5110526;28;20293;-67
2023/09/21 01:40:38;;;;;;;2.67;2.00;;;;;;;20.38;86.78;99549.66;5110638;28;20212;-67
2023/09/21 01:43:07;;;;;;;1.70;1.60;;;;;;;20.37;86.88;99552.34;5107927;28;20225;-67
2023/09/21 01:45:37;;;;;;;4.53;1.73;;;;;;;20.37;87.02;99552.34;5110331;28;20203;-68
2023/09/21 01:48:08;;;;;;;2.30;2.20;;;;;;;20.27;87.18;99535.69;5110804;28;20609;-67
2023/09/21 01:50:43;;;;;;;2.87;1.70;;;;;;;20.21;87.03;99530.84;5110697;28;20198;-67
2023/09/21 01:53:10;;;;;;;2.13;2.03;;;;;;;20.32;86.85;99549.22;5110679;28;20200;-67
2023/09/21 01:55:38;;;;;;;2.57;2.37;;;;;;;20.31;86.83;99547.56;5109855;28;20253;-68
2023/09/21 01:58:08;;;;;;;1.80;1.70;;;;;;;20.30;87.02;99541.50;5110310;28;20198;-67
2023/09/21 02:00:39;;;;;;;2.27;2.07;;;;;;;20.29;87.26;99542.44;5110530;28;20201;-67
2023/09/21 02:03:09;;;;;;;2.03;1.83;;;;;;;20.27;87.29;99541.72;5110435;28;20196;-67
2023/09/21 02:05:36;;;;;;;1.90;1.80;;;;;;;20.29;87.38;99549.44;5110252;28;20241;-67
2023/09/21 02:08:04;;;;;;;3.83;2.10;;;;;;;20.25;87.56;99540.97;5110687;28;20208;-67
2023/09/21 02:10:32;;;;;;;1.50;1.50;;;;;;;20.23;87.63;99541.97;5110016;28;20205;-67
2023/09/21 02:13:00;;;;;;;2.67;2.50;;;;;;;20.23;88.24;99539.38;5110625;28;20603;-68
2023/09/21 02:15:29;;;;;;;2.00;1.83;;;;;;;20.17;88.75;99534.59;5109763;28;20641;-67
2023/09/21 02:17:56;;;;;;;1.87;1.77;;;;;;;20.22;89.17;99537.75;5109703;28;20202;-67
2023/09/21 02:20:24;;;;;;;2.63;2.37;;;;;;;20.21;89.46;99542.09;5110895;28;20194;-67
2023/09/21 02:22:52;;;;;;;2.00;1.90;;;;;;;20.22;89.54;99540.34;5114170;28;20196;-67
2023/09/21 02:25:21;;;;;;;1.80;1.70;;;;;;;20.19;89.78;99538.78;5113578;28;20199;-67
2023/09/21 02:27:48;;;;;;;3.03;1.77;;;;;;;20.14;89.83;99529.59;5113028;28;20339;-67
2023/09/21 02:30:17;;;;;;;2.07;1.97;;;;;;;20.18;89.98;99546.69;5113853;28;21513;-67
2023/09/21 02:32:48;;;;;;;2.23;2.00;;;;;;;20.16;90.08;99543.34;5112587;28;20197;-67
2023/09/21 02:35:16;;;;;;;2.23;2.13;;;;;;;20.16;90.55;99544.16;5114195;28;20248;-67
2023/09/21 02:37:44;;;;;;;1.90;1.80;;;;;;;20.15;90.32;99544.28;5111073;28;20199;-67
2023/09/21 02:40:14;;;;;;;4.33;2.40;;;;;;;20.12;90.01;99544.50;5112934;28;20289;-67
2023/09/21 02:42:42;;;;;;;2.23;2.03;;;;;;;20.09;89.41;99548.13;5110490;28;20743;-67
2023/09/21 02:45:11;;;;;;;2.33;2.23;;;;;;;20.08;89.24;99545.63;5113722;28;20221;-67
2023/09/21 02:47:38;;;;;;;1.60;1.50;;;;;;;20.07;89.53;99549.16;5113465;28;20697;-67
2023/09/21 02:50:15;;;;;;;2.47;2.27;;;;;;;19.96;89.37;99531.69;5113270;28;20318;-67
2023/09/21 02:52:47;;;;;;;2.00;1.90;;;;;;;19.95;89.55;99539.56;5112670;28;20265;-67
2023/09/21 02:55:17;;;;;;;3.67;2.37;;;;;;;20.04;89.28;99549.34;5113519;28;20578;-67
2023/09/21 02:57:47;;;;;;;2.67;2.23;;;;;;;20.00;89.29;99547.91;5113186;28;20237;-67
2023/09/21 03:00:20;;;;;;;2.93;2.37;;;;;;;20.03;89.00;99552.91;5113487;28;20251;-67
2023/09/21 03:02:47;;;;;;;5.37;2.07;;;;;;;20.03;88.96;99552.91;5113159;28;20551;-67
2023/09/21 03:05:16;;;;;;;2.40;2.30;;;;;;;20.02;88.68;99567.69;5112831;28;20210;-67
2023/09/21 03:07:43;;;;;;;7.33;2.60;;;;;;;19.98;89.15;99565.38;5112739;28;20258;-67
2023/09/21 03:10:11;;;;;;;2.33;2.23;;;;;;;20.00;89.46;99579.16;5111391;28;20229;-67
2023/09/21 03:12:38;;;;;;;6.53;2.67;;;;;;;19.93;89.65;99566.50;5113225;28;20201;-67
2023/09/21 03:15:13;;;;;;;5.60;3.20;;;;;;;19.91;89.98;99568.41;5112335;28;20206;-67
2023/09/21 03:17:43;;;;;;;2.47;2.33;;;;;;;19.97;90.39;99574.16;5112964;28;20216;-67
2023/09/21 03:20:12;;;;;;;3.53;2.17;;;;;;;19.92;90.08;99571.84;5112646;28;20205;-67
2023/09/21 03:22:42;;;;;;;2.57;2.13;;;;;;;19.84;89.96;99569.72;5112290;28;20198;-67
2023/09/21 03:25:16;;;;;;;3.37;1.77;;;;;;;19.78;90.44;99564.09;5112612;28;20356;-67
2023/09/21 03:27:43;;;;;;;2.27;2.17;;;;;;;19.72;91.17;99567.94;5112323;28;20220;-67
2023/09/21 03:30:11;;;;;;;4.17;2.33;;;;;;;19.64;92.15;99567.59;5112358;28;20208;-67
2023/09/21 03:32:40;;;;;;;4.53;2.90;;;;;;;19.65;92.12;99574.44;5110650;28;20630;-68
2023/09/21 03:35:10;;;;;;;5.03;2.13;;;;;;;19.65;92.04;99579.66;5112256;28;20277;-67
2023/09/21 03:37:38;;;;;;;2.53;2.13;;;;;;;19.63;91.88;99563.31;5112241;28;20201;-67
2023/09/21 03:40:09;;;;;;;6.73;2.63;;;;;;;19.62;91.60;99569.44;5111532;28;20236;-67
2023/09/21 03:42:36;;;;;;;2.23;2.13;;;;;;;19.60;92.17;99571.31;5111985;28;20201;-67
2023/09/21 03:45:03;;;;;;;2.00;1.90;;;;;;;19.58;92.55;99573.19;5111853;28;20217;-67
2023/09/21 03:47:30;;;;;;;2.30;2.13;;;;;;;19.58;92.65;99561.97;5112155;28;20322;-67
2023/09/21 03:49:59;;;;;;;2.20;1.40;;;;;;;19.58;93.05;99562.78;5110857;28;20631;-67
2023/09/21 03:52:25;;;;;;;4.63;2.23;;;;;;;19.57;92.98;99555.94;5111669;28;20262;-67
2023/09/21 03:54:53;;;;;;;1.93;1.83;;;;;;;19.57;93.13;99561.13;5112278;28;20205;-67
2023/09/21 03:57:21;;;;;;;1.93;1.83;;;;;;;19.56;93.63;99564.66;5110571;28;20294;-67
2023/09/21 03:59:49;;;;;;;2.00;1.83;;;;;;;19.55;93.73;99565.56;5112052;28;20200;-67
2023/09/21 04:02:17;;;;;;;1.87;1.77;;;;;;;19.49;94.38;99550.38;5111813;28;20207;-67
2023/09/21 04:04:44;;;;;;;1.53;1.53;;;;;;;19.55;94.48;99557.78;5111241;28;20735;-67
2023/09/21 04:07:12;;;;;;;1.60;1.50;;;;;;;19.53;94.80;99564.00;5111538;28;20202;-67
2023/09/21 04:09:39;;;;;;;1.93;1.83;;;;;;;19.50;94.74;99565.03;5112042;28;20201;-67
2023/09/21 04:12:06;;;;;;;2.47;2.30;;;;;;;19.49;95.03;99571.16;5111678;28;20695;-67
2023/09/21 04:14:34;;;;;;;1.83;1.73;;;;;;;19.49;95.34;99567.72;5111467;28;20698;-68
2023/09/21 04:17:02;;;;;;;1.50;1.50;;;;;;;19.50;95.71;99565.03;5111777;28;20201;-67
2023/09/21 04:19:29;;;;;;;1.97;1.73;;;;;;;19.51;95.73;99565.88;5111533;28;20244;-67
2023/09/21 04:21:56;;;;;;;2.00;1.90;;;;;;;19.46;95.76;99552.31;5111505;28;20202;-67
2023/09/21 04:24:23;;;;;;;2.40;2.20;;;;;;;19.52;95.51;99565.78;5111096;28;20229;-67
2023/09/21 04:26:50;;;;;;;2.30;2.20;;;;;;;19.52;96.08;99573.56;5111120;28;20206;-68
2023/09/21 04:29:17;;;;;;;3.40;2.40;;;;;;;19.55;96.30;99578.56;5111575;28;20197;-67
2023/09/21 04:31:45;;;;;;;2.30;2.10;;;;;;;19.58;96.56;99580.97;5111141;27;20213;-67
2023/09/21 04:34:12;;;;;;;2.07;1.97;;;;;;;19.60;96.35;99579.13;5111117;28;20762;-67
2023/09/21 04:36:38;;;;;;;1.83;1.73;;;;;;;19.62;96.80;99569.44;5111274;28;20249;-67
2023/09/21 04:39:05;;;;;;;2.67;1.77;;;;;;;19.65;96.88;99571.84;5110012;28;20194;-67
2023/09/21 04:41:33;;;;;;;6.57;1.67;;;;;;;19.64;96.78;99566.78;5109670;28;20207;-67
2023/09/21 04:44:00;;;;;;;2.33;2.23;;;;;;;19.62;96.89;99564.25;5110192;28;20692;-67
2023/09/21 04:46:27;;;;;;;1.80;1.70;;;;;;;19.61;97.77;99567.78;5111312;28;20329;-67
2023/09/21 04:48:55;;;;;;;1.70;1.60;;;;;;;19.63;97.95;99568.53;5109312;28;20199;-67
2023/09/21 04:51:21;;;;;;;5.73;2.10;;;;;;;19.67;98.10;99570.00;5110841;28;20214;-67
2023/09/21 04:53:48;;;;;;;2.23;2.13;;;;;;;19.71;97.83;99563.66;5110802;28;20205;-67
2023/09/21 04:56:15;;;;;;;7.20;2.47;;;;;;;19.75;97.67;99570.31;5110322;28;20202;-67
2023/09/21 04:58:42;;;;;;;2.00;1.90;;;;;;;19.80;98.62;99572.66;5110945;28;20196;-67
2023/09/21 05:01:10;;;;;;;2.00;1.70;;;;;;;19.82;98.20;99575.97;5110945;28;20202;-67
2023/09/21 05:03:37;;;;;;;2.63;2.47;;;;;;;19.83;97.49;99567.25;5110690;28;20197;-67
2023/09/21 05:06:06;;;;;;;1.80;1.70;;;;;;;19.85;96.43;99561.00;5111021;28;20701;-67
2023/09/21 05:08:36;;;;;;;1.97;1.87;;;;;;;19.85;95.87;99552.34;5110859;28;20197;-67
2023/09/21 05:11:03;;;;;;;1.97;1.87;;;;;;;19.73;96.55;99534.94;5110071;28;20547;-65
2023/09/21 05:13:29;;;;;;;2.27;1.50;;;;;;;19.81;97.07;99549.09;5109352;28;20221;-64
2023/09/21 05:15:56;;;;;;;2.23;2.13;;;;;;;19.81;97.72;99549.09;5109725;28;20589;-65
2023/09/21 05:18:23;;;;;;;3.87;1.97;;;;;;;19.82;98.26;99550.78;5108094;28;20225;-66
2023/09/21 05:20:51;;;;;;;1.90;1.80;;;;;;;19.83;98.75;99549.03;5106572;28;20198;-66
2023/09/21 05:23:19;;;;;;;1.80;1.70;;;;;;;19.85;98.83;99560.16;5107577;28;20297;-67
2023/09/21 05:25:46;;;;;;;4.00;2.10;;;;;;;19.90;98.66;99573.72;5109095;28;20313;-66
2023/09/21 05:28:14;;;;;;;2.13;2.03;;;;;;;19.97;98.35;99579.34;5108657;28;20292;-66
2023/09/21 05:30:41;;;;;;;1.93;1.83;;;;;;;20.01;98.34;99575.59;5106976;28;20206;-67
2023/09/21 05:33:08;;;;;;;2.10;2.00;;;;;;;20.06;99.04;99581.34;5108681;28;20252;-66
2023/09/21 05:35:35;;;;;;;1.90;1.87;;;;;;;20.09;98.98;99589.78;5108658;28;20261;-66
2023/09/21 05:38:05;;;;;;;4.83;2.27;;;;;;;20.09;100.00;99597.59;5109021;28;20211;-66
2023/09/21 05:40:34;;;;;;;2.47;2.37;;;;;;;20.14;99.53;99592.06;5109191;28;20206;-66
2023/09/21 05:43:01;;;;;;;2.63;2.43;;;;;;;20.18;98.38;99601.34;5109128;28;20233;-66
2023/09/21 05:45:28;;;;;;;8.37;2.50;;;;;;;20.10;98.12;99581.03;5108592;28;20220;-68
2023/09/21 05:47:54;;;;;;;2.87;2.67;;;;;;;20.19;97.17;99593.44;5110189;28;20693;-66
2023/09/21 05:50:22;;;;;;;2.37;2.27;;;;;;;20.22;97.29;99592.41;5109629;28;20202;-66
2023/09/21 05:52:49;;;;;;;1.80;1.70;;;;;;;20.27;97.09;99587.75;5109469;28;20671;-66
2023/09/21 05:55:16;;;;;;;1.90;1.80;;;;;;;20.25;97.14;99584.38;5110815;28;20206;-66
2023/09/21 05:57:47;;;;;;;2.10;2.00;;;;;;;20.23;96.92;99588.84;5113165;28;20206;-67
2023/09/21 06:00:17;;;;;;;5.33;2.27;;;;;;;20.25;96.97;99607.81;5112939;28;20292;-66
2023/09/21 06:02:44;;;;;;;2.27;2.17;;;;;;;20.25;97.02;99606.06;5111862;28;20231;-67
2023/09/21 06:05:11;;;;;;;2.47;2.37;;;;;;;20.14;97.40;99595.50;5113680;28;20663;-66
2023/09/21 06:07:37;;;;;;;2.10;2.00;;;;;;;20.12;97.53;99594.78;5113123;28;20207;-65
2023/09/21 06:10:06;;;;;;;2.33;2.23;;;;;;;20.05;97.91;99592.69;5113483;28;20209;-66
2023/09/21 06:12:33;;;;;;;3.43;1.97;;;;;;;20.05;98.25;99592.69;5112929;28;20266;-67
2023/09/21 06:15:05;;;;;;;1.90;1.80;;;;;;;20.10;98.39;99593.19;5113622;28;20213;-65
2023/09/21 06:17:32;;;;;;;2.27;2.07;;;;;;;20.06;98.40;99592.59;5113772;28;20307;-64
2023/09/21 06:19:59;;;;;;;2.40;2.20;;;;;;;20.10;99.10;99594.03;5113018;28;20582;-65
2023/09/21 06:22:27;;;;;;;2.77;2.57;;;;;;;20.15;98.82;99598.94;5112942;28;20668;-64
2023/09/21 06:24:54;;;;;;;3.27;3.17;;;;;;;20.15;97.77;99591.13;5113327;28;20266;-64
2023/09/21 06:27:21;;;;;;;5.83;4.90;;;;;;;20.20;97.77;99594.25;5113507;28;20201;-65
2023/09/21 06:29:49;;;;;;;9.23;6.63;;;;;;;20.26;98.62;99596.44;5114027;28;20670;-64
2023/09/21 06:32:18;;;;;;;8.07;5.27;;;;;;;20.34;98.45;99589.00;5113734;28;20239;-68
2023/09/21 06:34:45;;;;;;;4.57;3.20;;;;;;;20.41;97.03;99591.09;5113498;28;20195;-66
2023/09/21 06:37:12;;;;;;;2.17;2.07;;;;;;;20.43;96.87;99593.59;5112398;28;20743;-68
2023/09/21 06:39:39;;;;;;;2.83;2.63;;;;;;;20.41;98.00;99592.88;5111756;28;20240;-67
2023/09/21 06:42:06;;;;;;;6.47;2.77;;;;;;;20.53;98.50;99594.63;5111974;28;20679;-68
2023/09/21 06:44:33;;;;;;;4.63;2.53;;;;;;;20.62;97.30;99594.00;5111297;28;20213;-68
2023/09/21 06:47:00;;;;;;;4.30;1.93;;;;;;;20.63;97.42;99590.47;5111326;28;20247;-69
2023/09/21 06:49:29;;;;;;;2.83;2.53;;;;;;;20.71;97.21;99590.78;5111724;28;20209;-67
2023/09/21 06:51:56;;;;;;;2.50;2.37;;;;;;;20.80;96.78;99590.16;5112397;28;20207;-66
2023/09/21 06:54:24;;;;;;;46.90;16.90;;;;;;;20.86;96.72;99586.28;5113401;28;20293;-66
2023/09/21 06:56:51;;;;;;;18.03;8.33;;;;;;;20.89;96.95;99594.72;5112645;28;20234;-66
2023/09/21 06:59:17;;;;;;;3.03;2.87;;;;;;;20.94;96.76;99595.22;5111617;28;20206;-67
2023/09/21 07:01:44;;;;;;;8.93;2.43;;;;;;;21.00;96.15;99598.38;5111351;28;20674;-67
2023/09/21 07:04:11;;;;;;;42.33;16.43;;;;;;;20.95;96.56;99602.13;5110170;28;20203;-68
2023/09/21 07:06:40;;;;;;;10.70;5.53;;;;;;;20.98;96.38;99600.22;5110195;28;20606;-68
2023/09/21 07:09:09;;;;;;;3.57;2.67;;;;;;;21.06;96.74;99593.56;5111774;28;20213;-67
2023/09/21 07:11:35;;;;;;;2.80;2.60;;;;;;;21.19;96.17;99597.00;5110831;28;20439;-68
2023/09/21 07:14:03;;;;;;;2.50;2.40;;;;;;;21.23;95.09;99595.81;5112610;28;20229;-68
2023/09/21 07:16:30;;;;;;;2.53;2.33;;;;;;;21.26;95.96;99597.41;5111839;28;20496;-71
2023/09/21 07:18:57;;;;;;;2.53;2.03;;;;;;;21.44;95.67;99601.31;5110793;28;20437;-67
2023/09/21 07:21:24;;;;;;;2.70;2.50;;;;;;;21.59;94.56;99597.59;5111721;28;20226;-67
2023/09/21 07:23:52;;;;;;;2.30;2.20;;;;;;;21.67;94.26;99600.50;5112114;28;20255;-66
2023/09/21 07:26:19;;;;;;;3.37;1.87;;;;;;;21.69;94.02;99603.81;5111932;28;20223;-67
2023/09/21 07:28:46;;;;;;;2.20;1.70;;;;;;;21.69;93.92;99598.59;5112322;28;20206;-67
2023/09/21 07:31:13;;;;;;;2.43;2.33;;;;;;;21.81;93.16;99613.34;5112031;28;20238;-67
2023/09/21 07:33:40;;;;;;;4.60;4.17;;;;;;;21.89;92.45;99611.06;5112298;28;20602;-72
2023/09/21 07:36:08;;;;;;;17.77;9.80;;;;;;;21.90;91.98;99617.97;5113045;28;20686;-72
2023/09/21 07:38:35;;;;;;;7.20;5.23;;;;;;;21.97;91.91;99613.94;5112441;28;20281;-72
2023/09/21 07:41:06;;;;;;;5.07;2.83;;;;;;;21.98;91.46;99618.22;5112640;28;20194;-72
2023/09/21 07:43:33;;;;;;;2.40;2.20;;;;;;;22.04;91.46;99610.84;5110828;28;20569;-72
2023/09/21 07:46:00;;;;;;;3.83;2.60;;;;;;;22.04;90.78;99613.47;5111854;28;20231;-72
2023/09/21 07:48:27;;;;;;;2.30;2.20;;;;;;;21.96;90.30;99596.63;5112301;28;20271;-72
2023/09/21 07:50:56;;;;;;;2.70;2.27;;;;;;;22.09;90.54;99616.59;5112093;28;20198;-72
2023/09/21 07:53:22;;;;;;;2.20;2.10;;;;;;;22.16;89.64;99613.44;5111728;28;20248;-72
2023/09/21 07:55:59;;;;;;;6.03;3.93;;;;;;;22.26;89.94;99603.94;5112163;28;20198;-73
2023/09/21 07:58:27;;;;;;;4.47;3.30;;;;;;;22.27;89.66;99602.16;5110140;28;20206;-72
2023/09/21 08:00:56;;;;;;;2.20;2.00;;;;;;;22.32;90.29;99606.09;5109625;28;20639;-72
2023/09/21 08:03:25;;;;;;;3.53;2.40;;;;;;;22.42;89.55;99611.47;5111489;28;20559;-72
2023/09/21 08:05:52;;;;;;;3.30;1.93;;;;;;;22.47;89.48;99607.56;5112267;28;20255;-72
2023/09/21 08:08:19;;;;;;;2.17;1.97;;;;;;;22.55;88.51;99604.38;5111034;28;20195;-72
2023/09/21 08:10:46;;;;;;;5.03;1.90;;;;;;;22.60;88.26;99607.44;5111951;28;20202;-73
2023/09/21 08:13:13;;;;;;;1.90;1.80;;;;;;;22.64;87.49;99608.88;5112383;28;20200;-72
2023/09/21 08:15:42;;;;;;;1.60;1.60;;;;;;;22.68;88.52;99605.09;5111975;28;20205;-73
2023/09/21 08:18:10;;;;;;;2.13;1.93;;;;;;;22.74;87.52;99604.66;5112087;28;20199;-73
2023/09/21 08:20:39;;;;;;;2.43;2.17;;;;;;;22.69;86.71;99598.09;5111799;28;20199;-72
2023/09/21 08:23:07;;;;;;;1.70;1.30;;;;;;;22.81;86.19;99600.59;5112306;28;20202;-73
2023/09/21 08:25:35;;;;;;;2.00;1.90;;;;;;;22.92;86.36;99603.22;5110816;28;20225;-72
2023/09/21 08:28:03;;;;;;;2.20;2.10;;;;;;;23.04;85.46;99600.63;5111806;28;20202;-73
2023/09/21 08:30:30;;;;;;;1.90;1.80;;;;;;;23.09;83.06;99598.47;5111694;28;20671;-73
2023/09/21 08:32:59;;;;;;;2.87;2.67;;;;;;;23.19;83.87;99594.19;5111552;28;20198;-73
2023/09/21 08:35:26;;;;;;;2.33;2.13;;;;;;;23.32;83.11;99595.72;5111063;28;20238;-72
2023/09/21 08:37:53;;;;;;;2.20;2.00;;;;;;;23.48;82.66;99595.34;5111212;28;20202;-72
2023/09/21 08:40:22;;;;;;;1.40;1.30;;;;;;;23.62;83.04;99594.25;5111027;28;20317;-72
2023/09/21 08:42:53;;;;;;;1.50;1.40;;;;;;;23.74;81.06;99596.69;5110189;28;20194;-73
2023/09/21 08:45:21;;;;;;;1.87;1.77;;;;;;;23.83;79.53;99593.31;5111168;28;20218;-74
2023/09/21 08:47:49;;;;;;;1.70;1.60;;;;;;;23.91;79.70;99593.50;5108792;28;20219;-73
2023/09/21 08:50:17;;;;;;;2.27;2.13;;;;;;;24.05;79.25;99590.59;5111127;28;20199;-72
2023/09/21 08:52:45;;;;;;;1.93;1.83;;;;;;;24.16;79.27;99586.28;5110777;28;20305;-73
2023/09/21 08:55:13;;;;;;;2.23;2.03;;;;;;;24.32;79.57;99581.44;5110825;28;20633;-73
2023/09/21 08:57:40;;;;;;;2.60;2.27;;;;;;;24.58;77.27;99579.25;5111417;28;20234;-73
2023/09/21 09:00:08;;;;;;;2.47;1.87;;;;;;;24.78;74.43;99584.41;5111107;28;20564;-71
2023/09/21 09:02:36;;;;;;;2.30;2.20;;;;;;;24.94;73.17;99576.94;5111251;28;20280;-73
2023/09/21 09:05:06;;;;;;;1.90;1.80;;;;;;;24.95;71.31;99570.72;5110731;28;20248;-72
2023/09/21 09:07:39;;;;;;;1.97;1.87;;;;;;;25.05;72.45;99568.97;5111432;28;20195;-73
2023/09/21 09:10:09;;;;;;;1.53;1.53;;;;;;;25.15;73.76;99570.78;5109570;28;20203;-72
2023/09/21 09:12:37;;;;;;;2.20;2.10;;;;;;;25.33;71.69;99569.19;5110979;28;20194;-72
2023/09/21 09:15:05;;;;;;;1.17;1.17;;;;;;;25.28;69.41;99572.19;5111127;28;20286;-71
2023/09/21 09:17:33;;;;;;;1.40;1.30;;;;;;;25.12;68.05;99573.69;5111499;28;20203;-73
2023/09/21 09:20:02;;;;;;;1.20;1.20;;;;;;;25.12;69.08;99569.25;5110704;28;20202;-73
2023/09/21 09:22:31;;;;;;;1.37;1.30;;;;;;;25.18;68.84;99565.25;5111612;28;20198;-74
2023/09/21 09:25:05;;;;;;;1.30;1.20;;;;;;;25.48;70.51;99579.16;5111242;28;20664;-74
2023/09/21 09:27:32;;;;;;;1.50;1.50;;;;;;;25.62;67.85;99570.09;5110823;28;20276;-73
2023/09/21 09:29:59;;;;;;;1.70;1.20;;;;;;;25.60;67.18;99566.75;5111207;28;20682;-73
2023/09/21 09:32:35;;;;;;;1.20;1.20;;;;;;;25.59;67.28;99546.69;5114684;28;20194;-73
2023/09/21 09:35:04;;;;;;;2.30;1.43;;;;;;;25.89;67.19;99567.59;5114929;28;20194;-73
2023/09/21 09:37:34;;;;;;;1.40;1.40;;;;;;;25.96;67.47;99570.47;5114787;28;20191;-70
2023/09/21 09:40:09;;;;;;;1.90;1.80;;;;;;;25.68;66.28;99564.28;5114470;28;20195;-71
2023/09/21 09:42:37;;;;;;;1.50;1.50;;;;;;;25.77;65.52;99562.63;5114448;28;20190;-73
2023/09/21 09:45:06;;;;;;;2.40;1.37;;;;;;;25.88;66.08;99560.66;5110711;27;20202;-72
2023/09/21 09:47:37;;;;;;;1.60;1.50;;;;;;;26.04;69.68;99555.66;5111985;28;20312;-67
2023/09/21 09:50:09;;;;;;;1.10;1.10;;;;;;;26.19;64.61;99558.72;5112191;28;20536;-67
2023/09/21 09:52:45;;;;;;;1.47;1.33;;;;;;;26.30;63.69;99555.13;5112230;28;20206;-67
2023/09/21 09:55:14;;;;;;;1.17;1.17;;;;;;;26.38;63.60;99547.34;5112430;28;20206;-67
2023/09/21 09:57:45;;;;;;;1.20;1.20;;;;;;;26.40;65.28;99540.97;5113329;28;20201;-67
2023/09/21 10:00:21;;;;;;;1.57;1.47;;;;;;;26.43;66.01;99545.94;5111459;28;20297;-67
2023/09/21 10:02:49;;;;;;;1.27;1.27;;;;;;;26.41;65.49;99547.06;5113103;28;20206;-67
2023/09/21 10:05:19;;;;;;;1.20;1.20;;;;;;;26.45;64.25;99533.50;5112629;28;20198;-67
2023/09/21 10:07:47;;;;;;;1.70;1.60;;;;;;;26.46;65.39;99537.75;5112123;28;20319;-67
2023/09/21 10:10:19;;;;;;;1.37;1.37;;;;;;;26.61;66.36;99532.88;5111496;28;20242;-67
2023/09/21 10:12:49;;;;;;;1.10;1.10;;;;;;;26.79;63.69;99527.66;5112725;27;20202;-67
2023/09/21 10:15:16;;;;;;;1.23;1.23;;;;;;;26.98;62.42;99532.88;5110603;28;20205;-69
2023/09/21 10:17:43;;;;;;;1.20;1.10;;;;;;;27.19;62.63;99520.28;5108258;28;21041;-67
2023/09/21 10:20:14;;;;;;;1.47;1.13;;;;;;;27.31;67.58;99515.59;5112286;28;20267;-67
2023/09/21 10:22:42;;;;;;;1.27;1.27;;;;;;;27.40;62.01;99520.00;5111590;28;20214;-67
2023/09/21 10:25:11;;;;;;;1.07;0.93;;;;;;;27.45;62.18;99512.50;5112187;28;20202;-67
2023/09/21 10:27:46;;;;;;;1.00;1.00;;;;;;;27.63;61.27;99514.13;5111866;28;20242;-67
2023/09/21 10:30:15;;;;;;;1.60;1.50;;;;;;;27.76;64.65;99512.91;5111643;28;20281;-67
2023/09/21 10:32:43;;;;;;;1.67;1.57;;;;;;;27.87;61.74;99510.88;5112187;28;20199;-68
2023/09/21 10:35:14;;;;;;;1.03;1.03;;;;;;;27.76;59.28;99505.84;5113270;28;20678;-67
2023/09/21 10:37:41;;;;;;;1.10;1.10;;;;;;;27.78;59.57;99500.44;5113708;27;20205;-68
2023/09/21 10:40:08;;;;;;;1.40;1.30;;;;;;;27.81;58.09;99497.50;5112918;28;20203;-66
2023/09/21 10:42:37;;;;;;;1.40;1.30;;;;;;;27.71;61.28;99487.03;5113446;28;20237;-67
2023/09/21 10:45:09;;;;;;;2.93;1.33;;;;;;;27.78;58.84;99482.81;5113121;28;20199;-68
2023/09/21 10:47:48;;;;;;;1.50;1.47;;;;;;;27.80;60.43;99480.84;5113021;28;20222;-68
2023/09/21 10:50:15;;;;;;;1.33;1.33;;;;;;;27.94;57.95;99467.13;5112561;28;20297;-68
2023/09/21 10:52:44;;;;;;;1.60;1.50;;;;;;;27.91;60.33;99462.16;5112946;28;20256;-68
2023/09/21 10:55:13;;;;;;;1.13;1.13;;;;;;;27.83;57.95;99448.91;5112953;28;20203;-66
2023/09/21 10:57:41;;;;;;;1.40;1.40;;;;;;;27.86;58.69;99461.78;5110400;28;20252;-67
2023/09/21 11:00:16;;;;;;;1.73;1.50;;;;;;;28.04;61.36;99452.03;5112326;28;20233;-68
2023/09/21 11:02:44;;;;;;;1.40;1.33;;;;;;;28.03;57.47;99458.28;5113143;28;20198;-67
2023/09/21 11:05:11;;;;;;;4.00;1.10;;;;;;;28.15;58.59;99449.16;5113149;28;20589;-67
2023/09/21 11:07:39;;;;;;;1.30;1.20;;;;;;;28.34;58.22;99441.97;5112835;28;20636;-68
2023/09/21 11:10:11;;;;;;;1.50;1.40;;;;;;;28.45;56.74;99436.44;5112990;28;20202;-63
2023/09/21 11:12:40;;;;;;;1.23;1.23;;;;;;;28.35;55.60;99425.19;5112093;28;20285;-68
2023/09/21 11:15:12;;;;;;;1.10;1.10;;;;;;;28.51;57.09;99438.44;5113298;28;20688;-68
2023/09/21 11:17:41;;;;;;;2.37;1.70;;;;;;;28.49;56.88;99414.03;5112655;28;20201;-67
2023/09/21 11:20:11;;;;;;;1.27;1.20;;;;;;;28.72;57.08;99428.31;5112486;28;20271;-67
2023/09/21 11:22:37;;;;;;;1.42;1.42;;;;;;;28.74;54.51;99421.06;5112176;28;21833;-69
2023/09/21 11:25:06;;;;;;;1.02;1.02;;;;;;;28.70;55.27;99419.72;5112579;28;20205;-69
2023/09/21 11:27:33;;;;;;;1.48;1.38;;;;;;;28.72;57.79;99414.31;5112025;28;20217;-68
2023/09/21 11:30:00;;;;;;;1.20;1.20;;;;;;;28.78;55.40;99425.03;5112465;28;20590;-68
2023/09/21 11:32:29;;;;;;;1.27;1.27;;;;;;;28.76;55.84;99420.91;5108974;28;20203;-67
2023/09/21 11:34:59;;;;;;;1.15;1.15;;;;;;;28.73;55.80;99406.22;5111811;28;20670;-66
2023/09/21 11:37:28;;;;;;;1.20;1.20;;;;;;;28.73;56.92;99410.66;5112333;28;20206;-67
2023/09/21 11:39:55;;;;;;;0.88;0.88;;;;;;;28.81;55.83;99397.50;5112088;28;20647;-68